Flight Track Log - Related Links

Times and Time Zones

All times are in EDT time to prevent confusion due to time zone crossing. See the N534QS flight status page for this flight to view local times or setup timezone preferences in your user account.

Time Position Orientation Groundspeed Altitude Reporting Facility
EDT Latitude Longitude Course Direction KTS MPH feet Rate Location/Type
Thu 03:41:00 AM -2.0831 -79.7998 48° Northeast  Level Estimated
Thu 03:42:00 AM -1.9558 -79.6562 48° Northeast  Level Estimated
Thu 03:42:31 AM 18.2000 -67.9833 48° Northeast 580 667 41,000  Level San Juan Center
Thu 03:43:00 AM -1.8284 -79.5127 48° Northeast  Level Estimated
Thu 03:43:31 AM 18.2000 -67.8500 90° East 490 564 41,000  Level San Juan Center
Thu 03:44:00 AM -1.7011 -79.3692 48° Northeast  Level Estimated
Thu 03:44:31 AM 18.2167 -67.7000 83° East 490 564 41,000  Level San Juan Center
Thu 03:45:00 AM -1.5737 -79.2257 48° Northeast  Level Estimated
Thu 03:45:32 AM 18.2333 -67.5667 82° East 490 564 41,000  Level San Juan Center
Thu 03:46:00 AM -1.4463 -79.0822 48° Northeast  Level Estimated
Thu 03:46:32 AM 18.3167 -67.4500 53° Northeast 500 575 41,000  Level San Juan Center
Thu 03:47:00 AM -1.3190 -78.9387 48° Northeast  Level Estimated
Thu 03:47:32 AM 18.4000 -67.3167 57° Northeast 500 575 41,000  Level San Juan Center
Thu 03:48:32 AM 18.4833 -67.2000 53° Northeast 500 575 41,000  Level San Juan Center
Thu 03:49:32 AM 18.5667 -67.0833 53° Northeast 500 575 41,000  Level San Juan Center
Thu 03:50:32 AM 18.6500 -66.9500 57° Northeast 510 587 41,000  Level San Juan Center
Thu 03:51:32 AM 18.7333 -66.8167 57° Northeast 510 587 41,000  Level San Juan Center
Thu 03:52:33 AM 18.8167 -66.7000 53° Northeast 500 575 41,000  Level San Juan Center
Thu 03:53:33 AM 18.8833 -66.5833 59° Northeast 500 575 41,000  Level San Juan Center
Thu 03:54:33 AM 18.9667 -66.4500 57° Northeast 510 587 41,000  Level San Juan Center
Thu 03:55:33 AM 19.0500 -66.3333 53° Northeast 510 587 41,000  Level San Juan Center
Thu 03:56:33 AM 19.1333 -66.2000 56° Northeast 510 587 41,000  Level San Juan Center
Thu 03:57:33 AM 19.2000 -66.1000 55° Northeast 500 575 41,000  Level San Juan Center
Thu 03:58:34 AM 19.2833 -65.9667 56° Northeast 510 587 41,000  Level San Juan Center
Thu 03:59:34 AM 19.3667 -65.8500 53° Northeast 520 598 41,000  Level San Juan Center
Thu 04:00:33 AM 19.4500 -65.7167 56° Northeast 520 598 41,000  Level San Juan Center
Thu 04:01:34 AM 19.5167 -65.5833 62° Northeast 520 598 41,000  Level San Juan Center
Thu 04:02:34 AM 19.6000 -65.4667 53° Northeast 520 598 41,000  Level San Juan Center
Thu 04:03:34 AM 19.6833 -65.3333 56° Northeast 520 598 41,000  Level San Juan Center
Thu 04:04:34 AM 19.7667 -65.2000 56° Northeast 520 598 41,000  Level San Juan Center
Thu 04:05:34 AM 19.8500 -65.0833 53° Northeast 520 598 41,000  Level San Juan Center
Thu 04:06:34 AM 19.9333 -64.9500 56° Northeast 520 598 41,000  Level San Juan Center
Thu 04:07:34 AM 20.0167 -64.8167 56° Northeast 520 598 41,000  Level San Juan Center
Thu 04:08:34 AM 20.1000 -64.7000 53° Northeast 520 598 41,000  Level San Juan Center
Thu 04:09:34 AM 20.1833 -64.5833 53° Northeast 530 610 41,000  Level San Juan Center
Thu 04:10:34 AM 20.3000 -64.4833 39° Northeast 520 598 41,000  Level San Juan Center
Thu 04:11:35 AM 20.4167 -64.4000 34° Northeast 520 598 41,000  Level San Juan Center
Thu 04:12:35 AM 20.5333 -64.3000 39° Northeast 520 598 41,000  Level San Juan Center
Thu 04:13:35 AM 20.6500 -64.2167 34° Northeast 520 598 41,000  Level San Juan Center
Thu 04:14:35 AM 20.7667 -64.1167 39° Northeast 520 598 41,000  Level San Juan Center
Thu 04:15:35 AM 20.8833 -64.0333 34° Northeast 490 564 41,000  Level San Juan Center
Thu 04:16:35 AM 20.9667 -63.9167 53° Northeast 490 564 41,000  Level San Juan Center
Thu 04:17:35 AM 21.0500 -63.8000 53° Northeast 500 575 41,000  Level San Juan Center
Thu 04:18:35 AM 21.1333 -63.6833 53° Northeast 500 575 41,000  Level San Juan Center
Thu 04:19:36 AM 21.2000 -63.5500 62° Northeast 490 564 41,000  Level San Juan Center
Thu 04:20:36 AM 21.2333 -63.4000 77° East 480 552 41,000  Level San Juan Center
Thu 04:21:36 AM 21.2500 -63.2500 83° East 490 564 41,000  Level San Juan Center
Thu 04:22:36 AM 21.2833 -63.1167 75° East 500 575 41,000  Level San Juan Center
Thu 04:23:36 AM 21.3167 -62.9667 77° East 500 575 41,000  Level San Juan Center
Thu 04:24:36 AM 21.3500 -62.8167 77° East 500 575 41,000  Level San Juan Center
Thu 04:27:00 AM 21.4785 -62.6764 45° Northeast  Level FlightAware Approximate
Thu 04:27:37 AM 21.3833 -62.6333 56° Northeast 499 574 41,000  Level New York Oceanic (ODAPS)
Thu 04:34:00 AM 22.0814 -61.5122 56° Northeast 499 574 41,000  Level FlightAware Transoceanic
Thu 04:35:00 AM 22.1584 -61.3869 56° Northeast 499 574 41,000  Level FlightAware Transoceanic
Thu 04:36:00 AM 22.2354 -61.2615 56° Northeast 499 574 41,000  Level FlightAware Transoceanic
Thu 04:37:00 AM 22.3123 -61.1360 57° Northeast 499 574 41,000  Level FlightAware Transoceanic
Thu 04:38:00 AM 22.3891 -61.0103 57° Northeast 499 574 41,000  Level FlightAware Transoceanic
Thu 04:39:00 AM 22.4658 -60.8845 57° Northeast 499 574 41,000  Level FlightAware Transoceanic
Thu 04:40:00 AM 22.5424 -60.7586 57° Northeast 499 574 41,000  Level FlightAware Transoceanic
Thu 04:41:00 AM 22.6189 -60.6325 57° Northeast 499 574 41,000  Level FlightAware Transoceanic
Thu 04:42:00 AM 22.6954 -60.5063 57° Northeast 499 574 41,000  Level FlightAware Transoceanic
Thu 04:43:00 AM 22.7717 -60.3799 57° Northeast 499 574 41,000  Level FlightAware Transoceanic
Thu 04:44:00 AM 22.8479 -60.2534 57° Northeast 499 574 41,000  Level FlightAware Transoceanic
Thu 04:45:00 AM 22.9240 -60.1268 57° Northeast 499 574 41,000  Level FlightAware Transoceanic
Thu 04:46:00 AM 23.0000 -60.0000 41° Northeast 499 574 41,000  Level FlightAware Transoceanic
Thu 04:47:00 AM 23.1104 -59.8955 41° Northeast 499 574 41,000  Level FlightAware Transoceanic
Thu 04:47:08 AM 23.0000 -60.0000 41° Northeast 526 605 41,000  Level New York Oceanic (ODAPS)
Thu 04:48:00 AM 23.2208 -59.7909 41° Northeast 499 574 41,000  Level FlightAware Transoceanic
Thu 04:49:00 AM 23.3310 -59.6861 41° Northeast 499 574 41,000  Level FlightAware Transoceanic
Thu 04:50:00 AM 23.4412 -59.5812 41° Northeast 499 574 41,000  Level FlightAware Transoceanic
Thu 04:51:00 AM 23.5514 -59.4760 41° Northeast 499 574 41,000  Level FlightAware Transoceanic
Thu 04:52:00 AM 23.6614 -59.3707 41° Northeast 499 574 41,000  Level FlightAware Transoceanic
Thu 04:53:00 AM 23.8813 -59.1595 41° Northeast 526 605 41,000  Level FlightAware Transoceanic
Thu 04:54:00 AM 23.9912 -59.0536 41° Northeast 526 605 41,000  Level FlightAware Transoceanic
Thu 04:55:00 AM 24.1010 -58.9476 41° Northeast 526 605 41,000  Level FlightAware Transoceanic
Thu 04:56:00 AM 24.2107 -58.8414 41° Northeast 526 605 41,000  Level FlightAware Transoceanic
Thu 04:57:00 AM 24.3203 -58.7350 42° Northeast 526 605 41,000  Level FlightAware Transoceanic
Thu 04:58:00 AM 24.4299 -58.6284 42° Northeast 526 605 41,000  Level FlightAware Transoceanic
Thu 04:59:00 AM 24.5393 -58.5216 42° Northeast 526 605 41,000 1,034 Level FlightAware Transoceanic
Thu 04:59:56 AM 23.0000 -60.0000 41° Northeast 526 605 43,000  Climbing New York Oceanic (ODAPS)
Thu 05:00:00 AM 24.6487 -58.4146 42° Northeast 526 605 41,000 -1,875 Descending FlightAware Transoceanic
Thu 05:01:00 AM 24.7581 -58.3075 42° Northeast 526 605 41,000  Level FlightAware Transoceanic
Thu 05:02:00 AM 24.8673 -58.2001 42° Northeast 526 605 41,000  Level FlightAware Transoceanic
Thu 05:03:00 AM 24.9765 -58.0926 42° Northeast 526 605 41,000  Level FlightAware Transoceanic
Thu 05:04:00 AM 25.0856 -57.9849 42° Northeast 526 605 41,000  Level FlightAware Transoceanic
Thu 05:05:00 AM 25.1946 -57.8770 42° Northeast 526 605 41,000 1,000 Level FlightAware Transoceanic
Thu 05:06:00 AM 25.3036 -57.7689 42° Northeast 526 605 43,000 1,000 Climbing FlightAware Transoceanic
Thu 05:07:00 AM 25.4124 -57.6606 42° Northeast 526 605 43,000  Level FlightAware Transoceanic
Thu 05:08:00 AM 25.5212 -57.5521 42° Northeast 526 605 43,000  Level FlightAware Transoceanic
Thu 05:09:00 AM 25.6299 -57.4434 42° Northeast 526 605 43,000  Level FlightAware Transoceanic
Thu 05:10:00 AM 25.7385 -57.3345 42° Northeast 526 605 43,000  Level FlightAware Transoceanic
Thu 05:11:00 AM 25.8471 -57.2254 42° Northeast 526 605 43,000  Level FlightAware Transoceanic
Thu 05:12:00 AM 25.9555 -57.1161 42° Northeast 526 605 43,000  Level FlightAware Transoceanic
Thu 05:13:00 AM 26.0639 -57.0066 42° Northeast 526 605 43,000  Level FlightAware Transoceanic
Thu 05:14:00 AM 26.1722 -56.8970 42° Northeast 526 605 43,000  Level FlightAware Transoceanic
Thu 05:15:00 AM 26.2804 -56.7871 42° Northeast 526 605 43,000  Level FlightAware Transoceanic
Thu 05:16:00 AM 26.3885 -56.6770 42° Northeast 526 605 43,000  Level FlightAware Transoceanic
Thu 05:17:00 AM 26.4966 -56.5667 42° Northeast 526 605 43,000  Level FlightAware Transoceanic
Thu 05:18:00 AM 26.6045 -56.4561 43° Northeast 526 605 43,000  Level FlightAware Transoceanic
Thu 05:19:00 AM 26.7124 -56.3454 43° Northeast 526 605 43,000  Level FlightAware Transoceanic
Thu 05:20:00 AM 26.8202 -56.2345 43° Northeast 526 605 43,000  Level FlightAware Transoceanic
Thu 05:21:00 AM 26.9279 -56.1233 43° Northeast 526 605 43,000  Level FlightAware Transoceanic
Thu 05:22:00 AM 27.0355 -56.0120 43° Northeast 526 605 43,000  Level FlightAware Transoceanic
Thu 05:23:00 AM 27.1430 -55.9004 43° Northeast 526 605 43,000  Level FlightAware Transoceanic
Thu 05:24:00 AM 27.2505 -55.7886 43° Northeast 526 605 43,000  Level FlightAware Transoceanic
Thu 05:25:00 AM 27.3578 -55.6766 43° Northeast 526 605 43,000  Level FlightAware Transoceanic
Thu 05:26:00 AM 27.4651 -55.5644 43° Northeast 526 605 43,000  Level FlightAware Transoceanic
Thu 05:27:00 AM 27.5722 -55.4520 43° Northeast 526 605 43,000  Level FlightAware Transoceanic
Thu 05:28:00 AM 27.6793 -55.3393 43° Northeast 526 605 43,000  Level FlightAware Transoceanic
Thu 05:29:00 AM 27.7863 -55.2264 43° Northeast 526 605 43,000  Level FlightAware Transoceanic
Thu 05:30:00 AM 27.8932 -55.1133 43° Northeast 526 605 43,000  Level FlightAware Transoceanic
Thu 05:31:00 AM 28.0000 -55.0000 46° Northeast 526 605 43,000  Level FlightAware Transoceanic
Thu 05:32:00 AM 28.1048 -54.8767 46° Northeast 526 605 43,000  Level FlightAware Transoceanic
Thu 05:33:00 AM 28.2096 -54.7531 46° Northeast 526 605 43,000  Level FlightAware Transoceanic
Thu 05:34:00 AM 28.3142 -54.6293 46° Northeast 526 605 43,000  Level FlightAware Transoceanic
Thu 05:35:00 AM 28.4187 -54.5053 46° Northeast 526 605 43,000  Level FlightAware Transoceanic
Thu 05:35:41 AM 28.0000 -55.0000 46° Northeast 543 625 43,000  Level New York Oceanic (ODAPS)
Thu 05:36:00 AM 28.5231 -54.3810 46° Northeast 526 605 43,000  Level FlightAware Transoceanic
Thu 05:37:00 AM 28.6273 -54.2565 46° Northeast 526 605 43,000  Level FlightAware Transoceanic
Thu 05:38:00 AM 28.7315 -54.1317 46° Northeast 526 605 43,000  Level FlightAware Transoceanic
Thu 05:39:00 AM 28.8356 -54.0066 47° Northeast 526 605 43,000  Level FlightAware Transoceanic
Thu 05:40:00 AM 28.9395 -53.8813 47° Northeast 526 605 43,000  Level FlightAware Transoceanic
Thu 05:41:00 AM 29.0433 -53.7558 47° Northeast 526 605 43,000  Level FlightAware Transoceanic
Thu 05:42:00 AM 29.0433 -53.7558 47° Northeast 543 625 43,000  Level FlightAware Transoceanic
Thu 05:43:00 AM 29.1470 -53.6300 47° Northeast 543 625 43,000  Level FlightAware Transoceanic
Thu 05:44:00 AM 29.2506 -53.5040 47° Northeast 543 625 43,000  Level FlightAware Transoceanic
Thu 05:45:00 AM 29.3540 -53.3777 47° Northeast 543 625 43,000  Level FlightAware Transoceanic
Thu 05:46:00 AM 29.4574 -53.2511 47° Northeast 543 625 43,000  Level FlightAware Transoceanic
Thu 05:47:00 AM 29.5606 -53.1243 47° Northeast 543 625 43,000  Level FlightAware Transoceanic
Thu 05:48:00 AM 29.6637 -52.9972 47° Northeast 543 625 43,000  Level FlightAware Transoceanic
Thu 05:49:00 AM 29.7667 -52.8699 47° Northeast 543 625 43,000  Level FlightAware Transoceanic
Thu 05:50:00 AM 29.8696 -52.7423 47° Northeast 543 625 43,000  Level FlightAware Transoceanic
Thu 05:51:00 AM 29.9723 -52.6145 47° Northeast 543 625 43,000  Level FlightAware Transoceanic
Thu 05:52:00 AM 30.0749 -52.4863 47° Northeast 543 625 43,000  Level FlightAware Transoceanic
Thu 05:53:00 AM 30.1774 -52.3579 47° Northeast 543 625 43,000  Level FlightAware Transoceanic
Thu 05:54:00 AM 30.2798 -52.2293 47° Northeast 543 625 43,000  Level FlightAware Transoceanic
Thu 05:55:00 AM 30.3820 -52.1004 47° Northeast 543 625 43,000  Level FlightAware Transoceanic
Thu 05:56:00 AM 30.4841 -51.9712 48° Northeast 543 625 43,000  Level FlightAware Transoceanic
Thu 05:57:00 AM 30.5861 -51.8417 48° Northeast 543 625 43,000  Level FlightAware Transoceanic
Thu 05:58:00 AM 30.6880 -51.7120 48° Northeast 543 625 43,000  Level FlightAware Transoceanic
Thu 05:59:00 AM 30.7897 -51.5820 48° Northeast 543 625 43,000  Level FlightAware Transoceanic
Thu 06:00:00 AM 30.8913 -51.4517 48° Northeast 543 625 43,000  Level FlightAware Transoceanic
Thu 06:01:00 AM 30.9927 -51.3211 48° Northeast 543 625 43,000  Level FlightAware Transoceanic
Thu 06:02:00 AM 31.0941 -51.1903 48° Northeast 543 625 43,000  Level FlightAware Transoceanic
Thu 06:03:00 AM 31.1953 -51.0592 48° Northeast 543 625 43,000  Level FlightAware Transoceanic
Thu 06:04:00 AM 31.2963 -50.9278 48° Northeast 543 625 43,000  Level FlightAware Transoceanic
Thu 06:05:00 AM 31.3973 -50.7961 48° Northeast 543 625 43,000  Level FlightAware Transoceanic
Thu 06:06:00 AM 31.4981 -50.6641 48° Northeast 543 625 43,000  Level FlightAware Transoceanic
Thu 06:07:00 AM 31.5987 -50.5319 48° Northeast 543 625 43,000  Level FlightAware Transoceanic
Thu 06:08:00 AM 31.6992 -50.3993 48° Northeast 543 625 43,000  Level FlightAware Transoceanic
Thu 06:09:00 AM 31.7996 -50.2665 48° Northeast 543 625 43,000  Level FlightAware Transoceanic
Thu 06:10:00 AM 31.8999 -50.1334 48° Northeast 543 625 43,000  Level FlightAware Transoceanic
Thu 06:11:00 AM 32.0000 -50.0000 53° Northeast 543 625 43,000  Level FlightAware Transoceanic
Thu 06:12:00 AM 32.0938 -49.8535 53° Northeast 543 625 43,000  Level FlightAware Transoceanic
Thu 06:13:00 AM 32.1874 -49.7067 53° Northeast 543 625 43,000  Level FlightAware Transoceanic
Thu 06:14:00 AM 32.2808 -49.5596 53° Northeast 543 625 43,000  Level FlightAware Transoceanic
Thu 06:14:30 AM 32.0000 -50.0000 53° Northeast 544 626 43,000  Level New York Oceanic (ODAPS)
Thu 06:15:00 AM 32.3741 -49.4121 53° Northeast 543 625 43,000  Level FlightAware Transoceanic
Thu 06:16:00 AM 32.4672 -49.2644 53° Northeast 543 625 43,000  Level FlightAware Transoceanic
Thu 06:17:00 AM 32.5601 -49.1164 53° Northeast 543 625 43,000  Level FlightAware Transoceanic
Thu 06:18:00 AM 32.6529 -48.9680 53° Northeast 543 625 43,000  Level FlightAware Transoceanic
Thu 06:19:00 AM 32.7454 -48.8194 54° Northeast 543 625 43,000  Level FlightAware Transoceanic
Thu 06:20:00 AM 32.8134 -48.7099 54° Northeast 544 626 43,000  Level FlightAware Transoceanic
Thu 06:21:00 AM 32.9029 -48.5651 54° Northeast 544 626 43,000  Level FlightAware Transoceanic
Thu 06:22:00 AM 32.9923 -48.4201 54° Northeast 544 626 43,000  Level FlightAware Transoceanic
Thu 06:23:00 AM 33.0816 -48.2747 54° Northeast 544 626 43,000  Level FlightAware Transoceanic
Thu 06:24:00 AM 33.1706 -48.1290 54° Northeast 544 626 43,000  Level FlightAware Transoceanic
Thu 06:25:00 AM 33.2595 -47.9830 54° Northeast 544 626 43,000  Level FlightAware Transoceanic
Thu 06:26:00 AM 33.3482 -47.8368 54° Northeast 544 626 43,000  Level FlightAware Transoceanic
Thu 06:27:00 AM 33.4367 -47.6902 54° Northeast 544 626 43,000  Level FlightAware Transoceanic
Thu 06:28:00 AM 33.5251 -47.5434 54° Northeast 544 626 43,000  Level FlightAware Transoceanic
Thu 06:29:00 AM 33.6133 -47.3962 54° Northeast 544 626 43,000  Level FlightAware Transoceanic
Thu 06:30:00 AM 33.7013 -47.2487 54° Northeast 544 626 43,000  Level FlightAware Transoceanic
Thu 06:31:00 AM 33.7892 -47.1010 54° Northeast 544 626 43,000  Level FlightAware Transoceanic
Thu 06:32:00 AM 33.8768 -46.9529 55° Northeast 544 626 43,000  Level FlightAware Transoceanic
Thu 06:33:00 AM 33.9643 -46.8045 55° Northeast 544 626 43,000  Level FlightAware Transoceanic
Thu 06:34:00 AM 34.0516 -46.6559 55° Northeast 544 626 43,000  Level FlightAware Transoceanic
Thu 06:35:00 AM 34.1388 -46.5069 55° Northeast 544 626 43,000  Level FlightAware Transoceanic
Thu 06:36:00 AM 34.2257 -46.3576 55° Northeast 544 626 43,000  Level FlightAware Transoceanic
Thu 06:37:00 AM 34.3125 -46.2080 55° Northeast 544 626 43,000  Level FlightAware Transoceanic
Thu 06:38:00 AM 34.3991 -46.0581 55° Northeast 544 626 43,000  Level FlightAware Transoceanic
Thu 06:39:00 AM 34.4855 -45.9079 55° Northeast 544 626 43,000  Level FlightAware Transoceanic
Thu 06:40:00 AM 34.5717 -45.7573 55° Northeast 544 626 43,000  Level FlightAware Transoceanic
Thu 06:41:00 AM 34.6577 -45.6065 55° Northeast 544 626 43,000  Level FlightAware Transoceanic
Thu 06:42:00 AM 34.7436 -45.4553 55° Northeast 544 626 43,000  Level FlightAware Transoceanic
Thu 06:43:00 AM 34.8292 -45.3039 55° Northeast 544 626 43,000  Level FlightAware Transoceanic
Thu 06:44:00 AM 34.9147 -45.1521 56° Northeast 544 626 43,000  Level FlightAware Transoceanic
Thu 06:45:00 AM 35.0000 -45.0000 62° Northeast 544 626 43,000  Level FlightAware Transoceanic
Thu 06:46:00 AM 35.0723 -44.8318 62° Northeast 544 626 43,000  Level FlightAware Transoceanic
Thu 06:47:00 AM 35.1445 -44.6633 62° Northeast 544 626 43,000  Level FlightAware Transoceanic
Thu 06:48:00 AM 35.2164 -44.4945 63° Northeast 544 626 43,000  Level FlightAware Transoceanic
Thu 06:49:00 AM 35.2880 -44.3254 63° Northeast 544 626 43,000  Level FlightAware Transoceanic
Thu 06:49:13 AM 35.0000 -45.0000 62° Northeast 542 624 43,000  Level New York Oceanic (ODAPS)
Thu 06:50:00 AM 35.3594 -44.1560 63° Northeast 544 626 43,000  Level FlightAware Transoceanic
Thu 06:51:00 AM 35.4306 -43.9863 63° Northeast 544 626 43,000  Level FlightAware Transoceanic
Thu 06:52:00 AM 35.5016 -43.8163 63° Northeast 544 626 43,000  Level FlightAware Transoceanic
Thu 06:53:00 AM 35.5723 -43.6460 63° Northeast 544 626 43,000  Level FlightAware Transoceanic
Thu 06:54:00 AM 35.6427 -43.4754 63° Northeast 544 626 43,000  Level FlightAware Transoceanic
Thu 06:55:00 AM 35.6896 -43.3615 63° Northeast 542 624 43,000  Level FlightAware Transoceanic
Thu 06:56:00 AM 35.7573 -43.1961 63° Northeast 542 624 43,000  Level FlightAware Transoceanic
Thu 06:57:00 AM 35.8248 -43.0304 63° Northeast 542 624 43,000  Level FlightAware Transoceanic
Thu 06:58:00 AM 35.8921 -42.8645 63° Northeast 542 624 43,000  Level FlightAware Transoceanic
Thu 06:59:00 AM 35.9591 -42.6982 64° Northeast 542 624 43,000  Level FlightAware Transoceanic
Thu 07:00:00 AM 36.0259 -42.5317 64° Northeast 542 624 43,000  Level FlightAware Transoceanic
Thu 07:01:00 AM 36.0925 -42.3649 64° Northeast 542 624 43,000  Level FlightAware Transoceanic
Thu 07:02:00 AM 36.1589 -42.1978 64° Northeast 542 624 43,000  Level FlightAware Transoceanic
Thu 07:03:00 AM 36.2250 -42.0305 64° Northeast 542 624 43,000  Level FlightAware Transoceanic
Thu 07:04:00 AM 36.2909 -41.8628 64° Northeast 542 624 43,000  Level FlightAware Transoceanic
Thu 07:05:00 AM 36.3565 -41.6949 64° Northeast 542 624 43,000  Level FlightAware Transoceanic
Thu 07:06:00 AM 36.4220 -41.5267 64° Northeast 542 624 43,000  Level FlightAware Transoceanic
Thu 07:07:00 AM 36.4872 -41.3582 64° Northeast 542 624 43,000  Level FlightAware Transoceanic
Thu 07:08:00 AM 36.5521 -41.1894 64° Northeast 542 624 43,000  Level FlightAware Transoceanic
Thu 07:09:00 AM 36.6168 -41.0203 65° Northeast 542 624 43,000  Level FlightAware Transoceanic
Thu 07:10:00 AM 36.6813 -40.8510 65° Northeast 542 624 43,000  Level FlightAware Transoceanic
Thu 07:11:00 AM 36.7455 -40.6814 65° Northeast 542 624 43,000  Level FlightAware Transoceanic
Thu 07:12:00 AM 36.8095 -40.5115 65° Northeast 542 624 43,000  Level FlightAware Transoceanic
Thu 07:13:00 AM 36.8732 -40.3413 65° Northeast 542 624 43,000  Level FlightAware Transoceanic
Thu 07:14:00 AM 36.9367 -40.1708 65° Northeast 542 624 43,000  Level FlightAware Transoceanic
Thu 07:15:00 AM 37.0000 -40.0000 60° Northeast 542 624 43,000  Level FlightAware Transoceanic
Thu 07:16:00 AM 37.0772 -39.8342 60° Northeast 542 624 43,000  Level FlightAware Transoceanic
Thu 07:17:00 AM 37.1543 -39.6682 60° Northeast 542 624 43,000  Level FlightAware Transoceanic
Thu 07:18:00 AM 37.2310 -39.5017 60° Northeast 542 624 43,000  Level FlightAware Transoceanic
Thu 07:19:00 AM 37.3076 -39.3349 60° Northeast 542 624 43,000  Level FlightAware Transoceanic
Thu 07:19:00 AM 37.0000 -40.0000 60° Northeast 532 612 43,000  Level ETMS Enhanced Traffic Management System
Thu 07:20:00 AM 37.3839 -39.1678 60° Northeast 542 624 43,000  Level FlightAware Transoceanic
Thu 07:21:00 AM 37.4599 -39.0004 60° Northeast 542 624 43,000  Level FlightAware Transoceanic
Thu 07:22:00 AM 37.5358 -38.8326 60° Northeast 542 624 43,000  Level FlightAware Transoceanic
Thu 07:23:00 AM 37.6114 -38.6645 60° Northeast 542 624 43,000  Level FlightAware Transoceanic
Thu 07:24:00 AM 37.6867 -38.4960 61° Northeast 542 624 43,000  Level FlightAware Transoceanic
Thu 07:25:00 AM 37.7364 -38.3844 61° Northeast 532 612 43,000  Level FlightAware Transoceanic
Thu 07:26:00 AM 37.8088 -38.2211 61° Northeast 532 612 43,000  Level FlightAware Transoceanic
Thu 07:27:00 AM 37.8810 -38.0575 61° Northeast 532 612 43,000  Level FlightAware Transoceanic
Thu 07:28:00 AM 37.9530 -37.8935 61° Northeast 532 612 43,000  Level FlightAware Transoceanic
Thu 07:29:00 AM 38.0247 -37.7293 61° Northeast 532 612 43,000  Level FlightAware Transoceanic
Thu 07:30:00 AM 38.0962 -37.5647 61° Northeast 532 612 43,000  Level FlightAware Transoceanic
Thu 07:31:00 AM 38.1675 -37.3998 61° Northeast 532 612 43,000  Level FlightAware Transoceanic
Thu 07:32:00 AM 38.2386 -37.2345 61° Northeast 532 612 43,000  Level FlightAware Transoceanic
Thu 07:33:00 AM 38.3094 -37.0690 61° Northeast 532 612 43,000  Level FlightAware Transoceanic
Thu 07:34:00 AM 38.3800 -36.9031 62° Northeast 532 612 43,000  Level FlightAware Transoceanic
Thu 07:35:00 AM 38.4503 -36.7369 62° Northeast 532 612 43,000  Level FlightAware Transoceanic
Thu 07:36:00 AM 38.5205 -36.5704 62° Northeast 532 612 43,000  Level FlightAware Transoceanic
Thu 07:37:00 AM 38.5903 -36.4035 62° Northeast 532 612 43,000  Level FlightAware Transoceanic
Thu 07:38:00 AM 38.6600 -36.2363 62° Northeast 532 612 43,000  Level FlightAware Transoceanic
Thu 07:39:00 AM 38.7294 -36.0688 62° Northeast 532 612 43,000  Level FlightAware Transoceanic
Thu 07:40:00 AM 38.7985 -35.9010 62° Northeast 532 612 43,000  Level FlightAware Transoceanic
Thu 07:41:00 AM 38.8675 -35.7328 62° Northeast 532 612 43,000  Level FlightAware Transoceanic
Thu 07:42:00 AM 38.9361 -35.5644 62° Northeast 532 612 43,000  Level FlightAware Transoceanic
Thu 07:43:00 AM 39.0046 -35.3956 63° Northeast 532 612 43,000  Level FlightAware Transoceanic
Thu 07:44:00 AM 39.0728 -35.2264 63° Northeast 532 612 43,000  Level FlightAware Transoceanic
Thu 07:45:00 AM 39.1407 -35.0570 63° Northeast 532 612 43,000  Level FlightAware Transoceanic
Thu 07:46:00 AM 39.2084 -34.8872 63° Northeast 532 612 43,000  Level FlightAware Transoceanic
Thu 07:47:00 AM 39.2759 -34.7171 63° Northeast 532 612 43,000  Level FlightAware Transoceanic
Thu 07:48:00 AM 39.3431 -34.5466 63° Northeast 532 612 43,000  Level FlightAware Transoceanic
Thu 07:49:00 AM 39.4101 -34.3759 63° Northeast 532 612 43,000  Level FlightAware Transoceanic
Thu 07:50:00 AM 39.4768 -34.2048 63° Northeast 532 612 43,000  Level FlightAware Transoceanic
Thu 07:51:00 AM 39.5432 -34.0334 63° Northeast 532 612 43,000  Level FlightAware Transoceanic
Thu 07:52:00 AM 39.6095 -33.8616 63° Northeast 532 612 43,000  Level FlightAware Transoceanic
Thu 07:53:00 AM 39.6754 -33.6895 64° Northeast 532 612 43,000  Level FlightAware Transoceanic
Thu 07:54:00 AM 39.7411 -33.5171 64° Northeast 532 612 43,000  Level FlightAware Transoceanic
Thu 07:55:00 AM 39.8065 -33.3444 64° Northeast 532 612 43,000  Level FlightAware Transoceanic
Thu 07:56:00 AM 39.8717 -33.1713 64° Northeast 532 612 43,000  Level FlightAware Transoceanic
Thu 07:57:00 AM 39.9367 -32.9979 64° Northeast 532 612 43,000  Level FlightAware Transoceanic
Thu 07:58:00 AM 40.0013 -32.8242 64° Northeast 532 612 43,000  Level FlightAware Transoceanic
Thu 07:59:00 AM 40.0658 -32.6502 64° Northeast 532 612 43,000  Level FlightAware Transoceanic
Thu 08:00:00 AM 40.1299 -32.4758 64° Northeast 532 612 43,000  Level FlightAware Transoceanic
Thu 08:01:00 AM 40.1938 -32.3011 64° Northeast 532 612 43,000  Level FlightAware Transoceanic
Thu 08:02:00 AM 40.2574 -32.1260 65° Northeast 532 612 43,000  Level FlightAware Transoceanic
Thu 08:03:00 AM 40.3208 -31.9507 65° Northeast 532 612 43,000  Level FlightAware Transoceanic
Thu 08:04:00 AM 40.3839 -31.7750 65° Northeast 532 612 43,000  Level FlightAware Transoceanic
Thu 08:05:00 AM 40.4467 -31.5990 65° Northeast 532 612 43,000  Level FlightAware Transoceanic
Thu 08:06:00 AM 40.5093 -31.4226 65° Northeast 532 612 43,000  Level FlightAware Transoceanic
Thu 08:07:00 AM 40.5716 -31.2460 65° Northeast 532 612 43,000  Level FlightAware Transoceanic
Thu 08:08:00 AM 40.6336 -31.0689 65° Northeast 532 612 43,000  Level FlightAware Transoceanic
Thu 08:09:00 AM 40.6953 -30.8916 65° Northeast 532 612 43,000  Level FlightAware Transoceanic
Thu 08:10:00 AM 40.7568 -30.7139 66° East 532 612 43,000  Level FlightAware Transoceanic
Thu 08:11:00 AM 40.8180 -30.5359 66° East 532 612 43,000  Level FlightAware Transoceanic
Thu 08:12:00 AM 40.8723 -30.3773 66° East  Level FlightAware Approximate
Thu 08:13:00 AM 40.9263 -30.2183 66° East  Level FlightAware Approximate
Thu 08:14:00 AM 40.9801 -30.0591 66° East  Level FlightAware Approximate
Thu 08:15:00 AM 41.0337 -29.8996 66° East  Level FlightAware Approximate
Thu 08:16:00 AM 41.0190 -29.9154 73° East  Level FlightAware Approximate
Thu 08:17:00 AM 41.0564 -29.7479 73° East  Level FlightAware Approximate
Thu 08:18:00 AM 41.0935 -29.5803 74° East  Level FlightAware Approximate
Thu 08:19:00 AM 41.1304 -29.4124 74° East  Level FlightAware Approximate
Thu 08:20:00 AM 41.1671 -29.2444 74° East  Level FlightAware Approximate
Thu 08:21:00 AM 41.2035 -29.0762 74° East  Level FlightAware Approximate
Thu 08:22:00 AM 41.2397 -28.9077 74° East  Level FlightAware Approximate
Thu 08:23:00 AM 41.2756 -28.7392 74° East  Level FlightAware Approximate
Thu 08:24:00 AM 41.3113 -28.5704 74° East  Level FlightAware Approximate
Thu 08:25:00 AM 41.3467 -28.4014 74° East  Level FlightAware Approximate
Thu 08:26:00 AM 41.3819 -28.2323 74° East  Level FlightAware Approximate
Thu 08:27:00 AM 41.4168 -28.0629 75° East  Level FlightAware Approximate
Thu 08:28:00 AM 41.4515 -27.8934 75° East  Level FlightAware Approximate
Thu 08:29:00 AM 41.4860 -27.7237 75° East  Level FlightAware Approximate
Thu 08:30:00 AM 41.5202 -27.5539 75° East  Level FlightAware Approximate
Thu 08:31:00 AM 41.5541 -27.3838 75° East  Level FlightAware Approximate
Thu 08:32:00 AM 41.5878 -27.2136 75° East  Level FlightAware Approximate
Thu 08:33:00 AM 41.6212 -27.0432 75° East  Level FlightAware Approximate
Thu 08:34:00 AM 41.6544 -26.8726 75° East  Level FlightAware Approximate
Thu 08:35:00 AM 41.6873 -26.7019 75° East  Level FlightAware Approximate
Thu 08:36:00 AM 41.7200 -26.5309 76° East  Level FlightAware Approximate
Thu 08:37:00 AM 41.7524 -26.3598 76° East  Level FlightAware Approximate
Thu 08:38:00 AM 41.7846 -26.1885 76° East  Level FlightAware Approximate
Thu 08:39:00 AM 41.8165 -26.0171 76° East  Level FlightAware Approximate
Thu 08:40:00 AM 41.8482 -25.8455 76° East  Level FlightAware Approximate
Thu 08:41:00 AM 41.8796 -25.6737 76° East  Level FlightAware Approximate
Thu 08:42:00 AM 41.9108 -25.5017 76° East  Level FlightAware Approximate
Thu 08:43:00 AM 41.9416 -25.3296 76° East  Level FlightAware Approximate
Thu 08:44:00 AM 41.9723 -25.1573 76° East  Level FlightAware Approximate
Thu 08:45:00 AM 42.0007 -24.9845 87° East  Level FlightAware Approximate
Thu 08:46:00 AM 42.0082 -24.8075 87° East  Level FlightAware Approximate
Thu 08:47:00 AM 42.0155 -24.6305 87° East  Level FlightAware Approximate
Thu 08:48:00 AM 42.0225 -24.4534 87° East  Level FlightAware Approximate
Thu 08:49:00 AM 42.0292 -24.2763 87° East  Level FlightAware Approximate
Thu 08:50:00 AM 42.0356 -24.0992 87° East  Level FlightAware Approximate
Thu 08:51:00 AM 42.0418 -23.9220 87° East  Level FlightAware Approximate
Thu 08:52:00 AM 42.0477 -23.7448 87° East  Level FlightAware Approximate
Thu 08:53:00 AM 42.0534 -23.5675 87° East  Level FlightAware Approximate
Thu 08:54:00 AM 42.0587 -23.3903 88° East  Level FlightAware Approximate
Thu 08:55:00 AM 42.0638 -23.2130 88° East  Level FlightAware Approximate
Thu 08:56:00 AM 42.0686 -23.0356 88° East  Level FlightAware Approximate
Thu 08:57:00 AM 42.0732 -22.8583 88° East  Level FlightAware Approximate
Thu 08:58:00 AM 42.0774 -22.6809 88° East  Level FlightAware Approximate
Thu 08:59:00 AM 42.0814 -22.5035 88° East  Level FlightAware Approximate
Thu 09:00:00 AM 42.0852 -22.3261 88° East  Level FlightAware Approximate
Thu 09:01:00 AM 42.0886 -22.1486 88° East  Level FlightAware Approximate
Thu 09:02:00 AM 42.0918 -21.9711 89° East  Level FlightAware Approximate
Thu 09:03:00 AM 42.0947 -21.7937 89° East  Level FlightAware Approximate
Thu 09:04:00 AM 42.0973 -21.6162 89° East  Level FlightAware Approximate
Thu 09:05:00 AM 42.0997 -21.4387 89° East  Level FlightAware Approximate
Thu 09:06:00 AM 42.1017 -21.2611 89° East  Level FlightAware Approximate
Thu 09:07:00 AM 42.1035 -21.0836 89° East  Level FlightAware Approximate
Thu 09:08:00 AM 42.1051 -20.9061 89° East  Level FlightAware Approximate
Thu 09:09:00 AM 42.1063 -20.7285 89° East  Level FlightAware Approximate
Thu 09:10:00 AM 42.1073 -20.5510 90° East  Level FlightAware Approximate
Thu 09:11:00 AM 42.1080 -20.3734 90° East  Level FlightAware Approximate
Thu 09:12:00 AM 42.1085 -20.1958 90° East  Level FlightAware Approximate
Thu 09:13:00 AM 42.1086 -20.0183 90° East  Level FlightAware Approximate
Thu 09:14:00 AM 42.1085 -19.8407 90° East  Level FlightAware Approximate
Thu 09:15:00 AM 42.1082 -19.6631 90° East  Level FlightAware Approximate
Thu 09:16:00 AM 42.1075 -19.4856 90° East  Level FlightAware Approximate
Thu 09:17:00 AM 42.1066 -19.3080 90° East  Level FlightAware Approximate
Thu 09:18:00 AM 42.1054 -19.1304 90° East  Level FlightAware Approximate
Thu 09:19:00 AM 42.1039 -18.9529 91° East  Level FlightAware Approximate
Thu 09:20:00 AM 42.1021 -18.7754 91° East  Level FlightAware Approximate
Thu 09:21:00 AM 42.1001 -18.5978 91° East  Level FlightAware Approximate
Thu 09:22:00 AM 42.0978 -18.4203 91° East  Level FlightAware Approximate
Thu 09:23:00 AM 42.0952 -18.2428 91° East  Level FlightAware Approximate
Thu 09:24:00 AM 42.0924 -18.0653 91° East  Level FlightAware Approximate
Thu 09:25:00 AM 42.0893 -17.8879 91° East  Level FlightAware Approximate
Thu 09:26:00 AM 42.0859 -17.7104 91° East  Level FlightAware Approximate
Thu 09:27:00 AM 42.0822 -17.5330 92° East  Level FlightAware Approximate
Thu 09:28:00 AM 42.0783 -17.3556 92° East  Level FlightAware Approximate
Thu 09:29:00 AM 42.0741 -17.1782 92° East  Level FlightAware Approximate
Thu 09:30:00 AM 42.0696 -17.0008 92° East  Level FlightAware Approximate
Thu 09:31:00 AM 42.0648 -16.8235 92° East  Level FlightAware Approximate
Thu 09:32:00 AM 42.0598 -16.6462 92° East  Level FlightAware Approximate
Thu 09:33:00 AM 42.0545 -16.4689 92° East  Level FlightAware Approximate
Thu 09:34:00 AM 42.0489 -16.2916 92° East  Level FlightAware Approximate
Thu 09:35:00 AM 42.0431 -16.1144 92° East  Level FlightAware Approximate
Thu 09:36:00 AM 42.0369 -15.9372 93° East  Level FlightAware Approximate
Thu 09:37:00 AM 42.0305 -15.7601 93° East  Level FlightAware Approximate
Thu 09:38:00 AM 42.0239 -15.5830 93° East  Level FlightAware Approximate
Thu 09:39:00 AM 42.0169 -15.4059 93° East  Level FlightAware Approximate
Thu 09:40:00 AM 42.0097 -15.2289 93° East  Level FlightAware Approximate
Thu 09:41:00 AM 42.0023 -15.0519 93° East  Level FlightAware Approximate
Thu 09:42:00 AM 41.9986 -14.8747 91° East  Level FlightAware Approximate
Thu 09:43:00 AM 41.9963 -14.6975 91° East  Level FlightAware Approximate
Thu 09:44:00 AM 41.9937 -14.5203 91° East  Level FlightAware Approximate
Thu 09:45:00 AM 41.9909 -14.3431 91° East  Level FlightAware Approximate
Thu 09:46:00 AM 41.9878 -14.1659 91° East  Level FlightAware Approximate
Thu 09:47:00 AM 41.9844 -13.9887 91° East  Level FlightAware Approximate
Thu 09:48:00 AM 41.9808 -13.8116 92° East  Level FlightAware Approximate
Thu 09:49:00 AM 41.9769 -13.6344 92° East  Level FlightAware Approximate
Thu 09:50:00 AM 41.9727 -13.4573 92° East  Level FlightAware Approximate
Thu 09:51:00 AM 41.9682 -13.2802 92° East  Level FlightAware Approximate
Thu 09:52:00 AM 41.9635 -13.1032 92° East  Level FlightAware Approximate
Thu 09:53:00 AM 41.9585 -12.9261 92° East  Level FlightAware Approximate
Thu 09:54:00 AM 41.9532 -12.7491 92° East  Level FlightAware Approximate
Thu 09:55:00 AM 41.9477 -12.5722 92° East  Level FlightAware Approximate
Thu 09:56:00 AM 41.9418 -12.3952 92° East  Level FlightAware Approximate
Thu 09:57:00 AM 41.9358 -12.2183 93° East  Level FlightAware Approximate
Thu 09:58:00 AM 41.9294 -12.0414 93° East  Level FlightAware Approximate
Thu 09:59:00 AM 41.9228 -11.8646 93° East  Level FlightAware Approximate
Thu 10:00:00 AM 41.9159 -11.6878 93° East  Level FlightAware Approximate
Thu 10:01:00 AM 41.9087 -11.5111 93° East  Level FlightAware Approximate
Thu 10:02:00 AM 41.9012 -11.3343 93° East  Level FlightAware Approximate
Thu 10:03:00 AM 41.8935 -11.1577 93° East  Level FlightAware Approximate
Thu 10:04:00 AM 41.8855 -10.9810 93° East  Level FlightAware Approximate
Thu 10:05:00 AM 41.8773 -10.8044 94° East  Level FlightAware Approximate
Thu 10:06:00 AM 41.8687 -10.6279 94° East  Level FlightAware Approximate
Thu 10:07:00 AM 41.8599 -10.4514 94° East  Level FlightAware Approximate
Thu 10:08:00 AM 41.8509 -10.2750 94° East  Level FlightAware Approximate
Thu 10:09:00 AM 41.8415 -10.0986 94° East  Level FlightAware Approximate
Thu 10:10:00 AM 41.8319 -9.9222 94° East  Level FlightAware Approximate
Thu 10:11:00 AM 41.8220 -9.7459 94° East  Level FlightAware Approximate
Thu 10:12:00 AM 41.8119 -9.5697 94° East  Level FlightAware Approximate
Thu 10:13:00 AM 41.8015 -9.3935 94° East  Level FlightAware Approximate
Thu 10:14:00 AM 41.7908 -9.2174 95° East  Level FlightAware Approximate
Thu 10:15:00 AM 41.7798 -9.0414 95° East  Level FlightAware Approximate
Thu 10:16:00 AM 41.7686 -8.8654 95° East  Level FlightAware Approximate
Thu 10:17:00 AM 41.7571 -8.6894 95° East  Level FlightAware Approximate
Thu 10:18:00 AM 41.7454 -8.5136 95° East  Level FlightAware Approximate
Thu 10:19:00 AM 41.7333 -8.3378 95° East  Level FlightAware Approximate
Thu 10:20:00 AM 41.7210 -8.1620 95° East  Level FlightAware Approximate
Thu 10:21:00 AM 41.7085 -7.9863 95° East  Level FlightAware Approximate
Thu 10:22:00 AM 41.6956 -7.8107 96° East  Level FlightAware Approximate
Thu 10:23:00 AM 41.6825 -7.6352 96° East  Level FlightAware Approximate
Thu 10:24:00 AM 41.6692 -7.4598 96° East  Level FlightAware Approximate
Thu 10:25:00 AM 41.6555 -7.2844 96° East  Level FlightAware Approximate
Thu 10:26:00 AM 41.6416 -7.1090 96° East  Level FlightAware Approximate
Thu 10:27:00 AM 41.6275 -6.9338 96° East  Level FlightAware Approximate
Thu 10:28:00 AM 41.6130 -6.7587 96° East  Level FlightAware Approximate
Thu 10:29:00 AM 41.5984 -6.5836 96° East  Level FlightAware Approximate
Thu 10:30:00 AM 41.5834 -6.4086 96° East  Level FlightAware Approximate
Thu 10:31:00 AM 41.5682 -6.2337 97° East  Level FlightAware Approximate
Thu 10:32:00 AM 41.5546 -6.0586 96° East  Level FlightAware Approximate
Thu 10:33:00 AM 41.5417 -5.8834 95° East  Level FlightAware Approximate
Thu 10:34:00 AM 41.5261 -5.7088 99° East  Level FlightAware Approximate
Thu 10:35:00 AM 41.4823 -5.5478 124° Southeast  Level FlightAware Approximate
Thu 10:36:00 AM 41.4091 -5.4016 124° Southeast  Level FlightAware Approximate
Thu 10:37:00 AM 41.3384 -5.2535 122° Southeast  Level FlightAware Approximate
Thu 10:38:00 AM 41.2688 -5.1046 122° Southeast  Level FlightAware Approximate
Thu 10:39:00 AM 41.1953 -4.9594 124° Southeast  Level FlightAware Approximate
Thu 10:40:00 AM 41.1214 -4.8145 124° Southeast  Level FlightAware Approximate
Thu 10:41:00 AM 41.0473 -4.6700 124° Southeast  Level FlightAware Approximate
Thu 10:42:00 AM 40.9731 -4.5258 124° Southeast  Level FlightAware Approximate
Thu 10:43:00 AM 40.8980 -4.3824 126° Southeast  Level FlightAware Approximate
Thu 10:44:00 AM 40.8210 -4.2412 126° Southeast  Level FlightAware Approximate
Thu 10:45:00 AM 40.7482 -4.0962 123° Southeast  Level FlightAware Approximate
Thu 10:46:00 AM 40.6741 -3.9525 126° Southeast  Level FlightAware Approximate
Thu 10:47:00 AM 40.5978 -3.8111 118° Southeast  Level FlightAware Approximate
Thu 10:48:00 AM 40.5264 -3.6662 128° Southeast  Level FlightAware Approximate
Thu 10:49:00 AM 40.4936 -3.5668 123° Southeast  Level Estimated
Thu 10:50:00 AM 40.4936 -3.5668 123° Southeast  Level Estimated
Thu 10:51:00 AM 40.4936 -3.5668 123° Southeast  Level Estimated
Thu 10:52:00 AM 40.4936 -3.5668 123° Southeast  Level Estimated
Thu 10:53:00 AM 40.4936 -3.5668 123° Southeast  Level Estimated
Thu 10:54:00 AM 40.4936 -3.5668 123° Southeast  Level Estimated
Thu 10:55:00 AM 40.4936 -3.5668 123° Southeast  Level Estimated
Thu 10:56:00 AM 40.4936 -3.5668 123° Southeast  Level Estimated
Thu 10:57:00 AM 40.4936 -3.5668 123° Southeast  Level Estimated

Login

Don't have an account? Register now (free) for customized features, flight alerts, and more!